Aviation Digital Data Service (ADDS)

Output produced by METARs form (0324 UTC 21 September 2017)
found at http://www.aviationweather.gov/adds/metars/
 
TAF TLPC 202300Z 2100/2124 13009KT 9999 SCT025 
     TEMPO 2106/2121 SHRA FEW015CB BKN019 
     PROB30 
     TEMPO 2114/2120 5000 TSRA
       
TAF TLPL 202300Z 2100/2124 13015KT 9999 SCT025 
     TEMPO 2106/2121 SHRA FEW015CB BKN019 
     PROB30 
     TEMPO 2114/2120 5000 TSRA